KSTK/STK METAR and TAF weather

Enter ICAO airport designator
Station Type Date Time Source
KSTK METAR 2020/08/05 16:55 UTC NOAA

KSTK 051655Z AUTO 18005KT 10SM CLR 28/12 A3006 RMK AO2


Station Type Date Time Source
KSTK Decoded METAR 2020/08/05 16:55 UTC NOAA

Station name not available
Aug 05, 2020 - 12:55 PM EDT / 2020.08.05 1655 UTC
Wind: from the S (180 degrees) at 6 MPH (5 KT):0
Visibility: 10 mile(s):0
Sky conditions: clear
Temperature: 82 F (28 C)
Dew Point: 53 F (12 C)
Relative Humidity: 37%
Pressure (altimeter): 30.06 in. Hg (1017 hPa)
ob: KSTK 051655Z AUTO 18005KT 10SM CLR 28/12 A3006 RMK AO2
cycle: 17

Station Type Date Time Source
KSTK TAF UTC NOAA

Error!

Example: see airport list